sensor_id;sensor_type;location;lat;lon;timestamp;P1;durP1;ratioP1;P2;durP2;ratioP2
17345;SDS011;8790;53.590;10.002;2023-03-24T00:00:08;6.87;;;5.33;;
17345;SDS011;8790;53.590;10.002;2023-03-24T00:02:44;8.73;;;5.43;;
17345;SDS011;8790;53.590;10.002;2023-03-24T00:05:16;9.03;;;5.27;;
17345;SDS011;8790;53.590;10.002;2023-03-24T00:07:50;7.53;;;4.90;;
17345;SDS011;8790;53.590;10.002;2023-03-24T00:10:22;5.67;;;4.90;;
17345;SDS011;8790;53.590;10.002;2023-03-24T00:12:53;7.33;;;4.97;;
17345;SDS011;8790;53.590;10.002;2023-03-24T00:15:25;5.97;;;4.57;;
17345;SDS011;8790;53.590;10.002;2023-03-24T00:17:59;7.70;;;4.87;;
17345;SDS011;8790;53.590;10.002;2023-03-24T00:20:30;7.57;;;4.80;;
17345;SDS011;8790;53.590;10.002;2023-03-24T00:23:02;7.37;;;4.67;;
17345;SDS011;8790;53.590;10.002;2023-03-24T00:25:34;6.77;;;4.00;;
17345;SDS011;8790;53.590;10.002;2023-03-24T00:28:06;8.63;;;4.20;;
17345;SDS011;8790;53.590;10.002;2023-03-24T00:30:40;5.97;;;3.97;;
17345;SDS011;8790;53.590;10.002;2023-03-24T00:33:13;5.80;;;4.03;;
17345;SDS011;8790;53.590;10.002;2023-03-24T00:35:45;4.67;;;3.90;;
17345;SDS011;8790;53.590;10.002;2023-03-24T00:38:17;4.90;;;3.53;;
17345;SDS011;8790;53.590;10.002;2023-03-24T00:40:49;4.27;;;3.43;;
17345;SDS011;8790;53.590;10.002;2023-03-24T00:43:21;6.00;;;3.93;;
17345;SDS011;8790;53.590;10.002;2023-03-24T00:45:56;5.57;;;3.60;;
17345;SDS011;8790;53.590;10.002;2023-03-24T00:48:32;5.93;;;3.53;;
17345;SDS011;8790;53.590;10.002;2023-03-24T00:51:07;5.03;;;3.17;;
17345;SDS011;8790;53.590;10.002;2023-03-24T00:53:40;5.47;;;3.17;;
17345;SDS011;8790;53.590;10.002;2023-03-24T00:56:12;6.33;;;3.20;;
17345;SDS011;8790;53.590;10.002;2023-03-24T00:58:45;5.13;;;3.10;;
17345;SDS011;8790;53.590;10.002;2023-03-24T01:01:17;5.60;;;3.27;;
17345;SDS011;8790;53.590;10.002;2023-03-24T01:03:52;4.93;;;2.80;;
17345;SDS011;8790;53.590;10.002;2023-03-24T01:06:25;6.50;;;3.20;;
17345;SDS011;8790;53.590;10.002;2023-03-24T01:08:57;5.33;;;3.20;;
17345;SDS011;8790;53.590;10.002;2023-03-24T01:11:35;6.53;;;3.30;;
17345;SDS011;8790;53.590;10.002;2023-03-24T01:14:09;5.03;;;3.13;;
17345;SDS011;8790;53.590;10.002;2023-03-24T01:16:41;5.40;;;3.40;;
17345;SDS011;8790;53.590;10.002;2023-03-24T01:19:14;4.83;;;3.07;;
17345;SDS011;8790;53.590;10.002;2023-03-24T01:21:47;4.93;;;3.20;;
17345;SDS011;8790;53.590;10.002;2023-03-24T01:24:20;5.70;;;3.40;;
17345;SDS011;8790;53.590;10.002;2023-03-24T01:26:54;5.20;;;3.40;;
17345;SDS011;8790;53.590;10.002;2023-03-24T01:29:26;6.03;;;3.37;;
17345;SDS011;8790;53.590;10.002;2023-03-24T01:31:58;6.30;;;3.70;;
17345;SDS011;8790;53.590;10.002;2023-03-24T01:34:31;4.87;;;3.40;;
17345;SDS011;8790;53.590;10.002;2023-03-24T01:37:03;5.17;;;3.40;;
17345;SDS011;8790;53.590;10.002;2023-03-24T01:39:35;5.30;;;3.10;;
17345;SDS011;8790;53.590;10.002;2023-03-24T01:42:09;7.60;;;3.50;;
17345;SDS011;8790;53.590;10.002;2023-03-24T01:44:46;4.77;;;3.17;;
17345;SDS011;8790;53.590;10.002;2023-03-24T01:47:19;5.37;;;3.23;;
17345;SDS011;8790;53.590;10.002;2023-03-24T01:49:53;5.90;;;3.23;;
17345;SDS011;8790;53.590;10.002;2023-03-24T01:52:28;4.37;;;3.03;;
17345;SDS011;8790;53.590;10.002;2023-03-24T01:55:04;7.30;;;3.50;;
17345;SDS011;8790;53.590;10.002;2023-03-24T01:57:40;6.33;;;3.27;;
17345;SDS011;8790;53.590;10.002;2023-03-24T02:00:16;5.53;;;3.23;;
17345;SDS011;8790;53.590;10.002;2023-03-24T02:03:19;5.53;;;3.30;;
17345;SDS011;8790;53.590;10.002;2023-03-24T02:05:59;6.70;;;3.43;;
17345;SDS011;8790;53.590;10.002;2023-03-24T02:08:34;6.37;;;3.27;;
17345;SDS011;8790;53.590;10.002;2023-03-24T02:11:10;5.97;;;3.80;;
17345;SDS011;8790;53.590;10.002;2023-03-24T02:13:51;4.13;;;3.27;;
17345;SDS011;8790;53.590;10.002;2023-03-24T02:16:30;7.47;;;3.63;;
17345;SDS011;8790;53.590;10.002;2023-03-24T02:19:42;4.50;;;3.20;;
17345;SDS011;8790;53.590;10.002;2023-03-24T02:22:55;4.77;;;3.13;;
17345;SDS011;8790;53.590;10.002;2023-03-24T02:26:07;3.93;;;3.23;;
17345;SDS011;8790;53.590;10.002;2023-03-24T02:29:01;5.40;;;3.53;;
17345;SDS011;8790;53.590;10.002;2023-03-24T02:31:50;5.90;;;3.33;;
17345;SDS011;8790;53.590;10.002;2023-03-24T02:38:07;6.80;;;3.33;;
17345;SDS011;8790;53.590;10.002;2023-03-24T02:40:50;5.00;;;3.50;;
17345;SDS011;8790;53.590;10.002;2023-03-24T02:43:32;5.00;;;3.47;;
17345;SDS011;8790;53.590;10.002;2023-03-24T02:46:15;4.67;;;3.30;;
17345;SDS011;8790;53.590;10.002;2023-03-24T02:49:04;4.73;;;3.20;;
17345;SDS011;8790;53.590;10.002;2023-03-24T02:51:44;6.17;;;3.50;;
17345;SDS011;8790;53.590;10.002;2023-03-24T02:54:25;5.80;;;3.40;;
17345;SDS011;8790;53.590;10.002;2023-03-24T02:57:04;5.00;;;3.27;;
17345;SDS011;8790;53.590;10.002;2023-03-24T03:00:00;5.80;;;3.37;;
17345;SDS011;8790;53.590;10.002;2023-03-24T03:03:00;5.80;;;3.30;;
17345;SDS011;8790;53.590;10.002;2023-03-24T03:05:38;8.27;;;3.57;;
17345;SDS011;8790;53.590;10.002;2023-03-24T03:08:18;5.90;;;3.50;;
17345;SDS011;8790;53.590;10.002;2023-03-24T03:10:52;5.20;;;3.20;;
17345;SDS011;8790;53.590;10.002;2023-03-24T03:13:29;5.43;;;3.50;;
17345;SDS011;8790;53.590;10.002;2023-03-24T03:16:05;6.17;;;2.97;;
17345;SDS011;8790;53.590;10.002;2023-03-24T03:18:40;8.00;;;3.43;;
17345;SDS011;8790;53.590;10.002;2023-03-24T03:21:19;7.30;;;3.30;;
17345;SDS011;8790;53.590;10.002;2023-03-24T03:23:55;5.83;;;3.13;;
17345;SDS011;8790;53.590;10.002;2023-03-24T03:26:30;4.80;;;3.37;;
17345;SDS011;8790;53.590;10.002;2023-03-24T03:29:06;7.70;;;3.77;;
17345;SDS011;8790;53.590;10.002;2023-03-24T03:31:43;5.17;;;3.27;;
17345;SDS011;8790;53.590;10.002;2023-03-24T03:34:21;5.37;;;3.27;;
17345;SDS011;8790;53.590;10.002;2023-03-24T03:37:03;4.13;;;3.10;;
17345;SDS011;8790;53.590;10.002;2023-03-24T03:39:39;5.43;;;3.50;;
17345;SDS011;8790;53.590;10.002;2023-03-24T03:42:16;4.47;;;3.40;;
17345;SDS011;8790;53.590;10.002;2023-03-24T03:44:49;7.57;;;3.60;;
17345;SDS011;8790;53.590;10.002;2023-03-24T03:47:22;4.60;;;3.43;;
17345;SDS011;8790;53.590;10.002;2023-03-24T03:49:54;4.93;;;3.37;;
17345;SDS011;8790;53.590;10.002;2023-03-24T03:52:26;3.80;;;3.30;;
17345;SDS011;8790;53.590;10.002;2023-03-24T03:54:57;4.30;;;3.40;;
17345;SDS011;8790;53.590;10.002;2023-03-24T03:57:30;4.17;;;3.70;;
17345;SDS011;8790;53.590;10.002;2023-03-24T04:00:15;5.93;;;3.47;;
17345;SDS011;8790;53.590;10.002;2023-03-24T04:03:09;4.97;;;3.67;;
17345;SDS011;8790;53.590;10.002;2023-03-24T04:05:51;6.53;;;3.90;;
17345;SDS011;8790;53.590;10.002;2023-03-24T04:08:31;5.77;;;4.27;;
17345;SDS011;8790;53.590;10.002;2023-03-24T04:11:30;5.00;;;3.70;;
17345;SDS011;8790;53.590;10.002;2023-03-24T04:14:16;4.70;;;3.67;;
17345;SDS011;8790;53.590;10.002;2023-03-24T04:17:17;4.90;;;3.37;;
17345;SDS011;8790;53.590;10.002;2023-03-24T04:20:04;6.77;;;4.20;;
17345;SDS011;8790;53.590;10.002;2023-03-24T04:22:46;4.57;;;3.80;;
17345;SDS011;8790;53.590;10.002;2023-03-24T04:25:31;5.37;;;4.03;;
17345;SDS011;8790;53.590;10.002;2023-03-24T04:28:12;6.03;;;3.53;;
17345;SDS011;8790;53.590;10.002;2023-03-24T04:30:56;4.50;;;3.40;;
17345;SDS011;8790;53.590;10.002;2023-03-24T04:33:37;4.53;;;3.70;;
17345;SDS011;8790;53.590;10.002;2023-03-24T04:36:13;4.33;;;3.50;;
17345;SDS011;8790;53.590;10.002;2023-03-24T04:39:15;5.30;;;3.93;;
17345;SDS011;8790;53.590;10.002;2023-03-24T04:41:55;4.07;;;3.67;;
17345;SDS011;8790;53.590;10.002;2023-03-24T04:44:30;4.13;;;3.60;;
17345;SDS011;8790;53.590;10.002;2023-03-24T04:47:23;3.93;;;3.53;;
17345;SDS011;8790;53.590;10.002;2023-03-24T04:50:12;3.70;;;3.40;;
17345;SDS011;8790;53.590;10.002;2023-03-24T04:52:59;4.70;;;3.33;;
17345;SDS011;8790;53.590;10.002;2023-03-24T04:58:48;4.40;;;3.60;;
17345;SDS011;8790;53.590;10.002;2023-03-24T05:01:20;4.00;;;3.60;;
17345;SDS011;8790;53.590;10.002;2023-03-24T05:04:12;4.73;;;3.43;;
17345;SDS011;8790;53.590;10.002;2023-03-24T05:06:45;4.37;;;3.70;;
17345;SDS011;8790;53.590;10.002;2023-03-24T05:09:22;5.13;;;3.70;;
17345;SDS011;8790;53.590;10.002;2023-03-24T05:11:55;4.43;;;3.60;;
17345;SDS011;8790;53.590;10.002;2023-03-24T05:14:27;4.20;;;3.40;;
17345;SDS011;8790;53.590;10.002;2023-03-24T05:16:59;4.60;;;3.50;;
17345;SDS011;8790;53.590;10.002;2023-03-24T05:19:32;4.47;;;3.70;;
17345;SDS011;8790;53.590;10.002;2023-03-24T05:22:05;3.80;;;3.50;;
17345;SDS011;8790;53.590;10.002;2023-03-24T05:24:36;3.73;;;3.30;;
17345;SDS011;8790;53.590;10.002;2023-03-24T05:27:09;5.47;;;3.73;;
17345;SDS011;8790;53.590;10.002;2023-03-24T05:29:41;4.03;;;3.57;;
17345;SDS011;8790;53.590;10.002;2023-03-24T05:32:16;4.07;;;3.67;;
17345;SDS011;8790;53.590;10.002;2023-03-24T05:34:47;3.63;;;3.23;;
17345;SDS011;8790;53.590;10.002;2023-03-24T05:37:23;3.90;;;3.50;;
17345;SDS011;8790;53.590;10.002;2023-03-24T05:39:55;3.90;;;3.40;;
17345;SDS011;8790;53.590;10.002;2023-03-24T05:42:47;4.17;;;3.50;;
17345;SDS011;8790;53.590;10.002;2023-03-24T05:45:20;4.00;;;3.40;;
17345;SDS011;8790;53.590;10.002;2023-03-24T05:47:51;3.70;;;3.40;;
17345;SDS011;8790;53.590;10.002;2023-03-24T05:50:30;4.30;;;3.47;;
17345;SDS011;8790;53.590;10.002;2023-03-24T05:53:03;5.47;;;3.97;;
17345;SDS011;8790;53.590;10.002;2023-03-24T05:56:02;4.73;;;3.27;;
17345;SDS011;8790;53.590;10.002;2023-03-24T05:58:54;4.27;;;3.83;;
17345;SDS011;8790;53.590;10.002;2023-03-24T06:01:33;3.70;;;3.40;;
17345;SDS011;8790;53.590;10.002;2023-03-24T06:04:18;3.57;;;3.27;;
17345;SDS011;8790;53.590;10.002;2023-03-24T06:06:52;3.93;;;3.30;;
17345;SDS011;8790;53.590;10.002;2023-03-24T06:09:30;3.40;;;3.10;;
17345;SDS011;8790;53.590;10.002;2023-03-24T06:12:04;4.03;;;3.63;;
17345;SDS011;8790;53.590;10.002;2023-03-24T06:14:39;3.80;;;3.40;;
17345;SDS011;8790;53.590;10.002;2023-03-24T06:17:17;4.63;;;3.33;;
17345;SDS011;8790;53.590;10.002;2023-03-24T06:19:51;4.40;;;3.30;;
17345;SDS011;8790;53.590;10.002;2023-03-24T06:22:49;4.70;;;3.80;;
17345;SDS011;8790;53.590;10.002;2023-03-24T06:25:29;3.67;;;3.37;;
17345;SDS011;8790;53.590;10.002;2023-03-24T06:28:22;5.20;;;3.50;;
17345;SDS011;8790;53.590;10.002;2023-03-24T06:30:56;3.57;;;3.27;;
17345;SDS011;8790;53.590;10.002;2023-03-24T06:33:35;4.03;;;3.20;;
17345;SDS011;8790;53.590;10.002;2023-03-24T06:36:09;3.83;;;3.20;;
17345;SDS011;8790;53.590;10.002;2023-03-24T06:38:44;3.30;;;3.00;;
17345;SDS011;8790;53.590;10.002;2023-03-24T06:41:22;3.20;;;2.90;;
17345;SDS011;8790;53.590;10.002;2023-03-24T06:43:58;3.80;;;3.30;;
17345;SDS011;8790;53.590;10.002;2023-03-24T06:46:31;3.07;;;2.83;;
17345;SDS011;8790;53.590;10.002;2023-03-24T06:49:03;3.50;;;3.20;;
17345;SDS011;8790;53.590;10.002;2023-03-24T06:51:34;3.50;;;3.20;;
17345;SDS011;8790;53.590;10.002;2023-03-24T06:54:06;4.87;;;3.20;;
17345;SDS011;8790;53.590;10.002;2023-03-24T06:56:40;3.37;;;3.03;;
17345;SDS011;8790;53.590;10.002;2023-03-24T06:59:12;3.30;;;3.00;;
17345;SDS011;8790;53.590;10.002;2023-03-24T07:01:46;3.40;;;3.10;;
17345;SDS011;8790;53.590;10.002;2023-03-24T07:04:28;3.80;;;3.20;;
17345;SDS011;8790;53.590;10.002;2023-03-24T07:07:13;4.10;;;3.70;;
17345;SDS011;8790;53.590;10.002;2023-03-24T07:09:46;5.20;;;3.53;;
17345;SDS011;8790;53.590;10.002;2023-03-24T07:12:20;4.00;;;3.60;;
17345;SDS011;8790;53.590;10.002;2023-03-24T07:14:53;3.20;;;2.83;;
17345;SDS011;8790;53.590;10.002;2023-03-24T07:17:25;3.30;;;2.80;;
17345;SDS011;8790;53.590;10.002;2023-03-24T07:20:15;3.80;;;2.80;;
17345;SDS011;8790;53.590;10.002;2023-03-24T07:22:54;2.60;;;2.40;;
17345;SDS011;8790;53.590;10.002;2023-03-24T07:25:29;2.73;;;2.10;;
17345;SDS011;8790;53.590;10.002;2023-03-24T07:28:19;2.90;;;2.30;;
17345;SDS011;8790;53.590;10.002;2023-03-24T07:30:52;3.27;;;2.27;;
17345;SDS011;8790;53.590;10.002;2023-03-24T07:33:25;2.77;;;2.30;;
17345;SDS011;8790;53.590;10.002;2023-03-24T07:35:56;2.47;;;1.73;;
17345;SDS011;8790;53.590;10.002;2023-03-24T07:38:30;2.80;;;1.60;;
17345;SDS011;8790;53.590;10.002;2023-03-24T07:41:08;3.20;;;1.73;;
17345;SDS011;8790;53.590;10.002;2023-03-24T07:43:45;2.20;;;1.60;;
17345;SDS011;8790;53.590;10.002;2023-03-24T07:46:23;4.47;;;2.37;;
17345;SDS011;8790;53.590;10.002;2023-03-24T07:48:54;4.07;;;1.40;;
17345;SDS011;8790;53.590;10.002;2023-03-24T07:51:26;3.13;;;1.80;;
17345;SDS011;8790;53.590;10.002;2023-03-24T07:54:05;1.40;;;1.30;;
17345;SDS011;8790;53.590;10.002;2023-03-24T07:56:42;2.87;;;1.50;;
17345;SDS011;8790;53.590;10.002;2023-03-24T07:59:16;2.63;;;1.73;;
17345;SDS011;8790;53.590;10.002;2023-03-24T08:02:09;4.73;;;1.60;;
17345;SDS011;8790;53.590;10.002;2023-03-24T08:05:05;4.07;;;1.77;;
17345;SDS011;8790;53.590;10.002;2023-03-24T08:07:49;3.60;;;1.43;;
17345;SDS011;8790;53.590;10.002;2023-03-24T08:10:23;4.83;;;1.50;;
17345;SDS011;8790;53.590;10.002;2023-03-24T08:12:57;4.00;;;1.50;;
17345;SDS011;8790;53.590;10.002;2023-03-24T08:15:30;4.80;;;1.30;;
17345;SDS011;8790;53.590;10.002;2023-03-24T08:18:02;7.07;;;1.43;;
17345;SDS011;8790;53.590;10.002;2023-03-24T08:20:34;5.30;;;1.57;;
17345;SDS011;8790;53.590;10.002;2023-03-24T08:23:06;6.23;;;1.53;;
17345;SDS011;8790;53.590;10.002;2023-03-24T08:25:37;5.70;;;1.40;;
17345;SDS011;8790;53.590;10.002;2023-03-24T08:28:09;4.53;;;1.50;;
17345;SDS011;8790;53.590;10.002;2023-03-24T08:30:42;3.50;;;1.37;;
17345;SDS011;8790;53.590;10.002;2023-03-24T08:33:15;6.30;;;1.87;;
17345;SDS011;8790;53.590;10.002;2023-03-24T08:35:47;9.20;;;3.53;;
17345;SDS011;8790;53.590;10.002;2023-03-24T08:38:18;6.10;;;1.70;;
17345;SDS011;8790;53.590;10.002;2023-03-24T08:40:52;3.70;;;1.50;;
17345;SDS011;8790;53.590;10.002;2023-03-24T08:43:23;6.70;;;1.80;;
17345;SDS011;8790;53.590;10.002;2023-03-24T08:45:57;5.13;;;1.40;;
17345;SDS011;8790;53.590;10.002;2023-03-24T08:48:30;5.27;;;1.60;;
17345;SDS011;8790;53.590;10.002;2023-03-24T08:51:08;5.23;;;1.50;;
17345;SDS011;8790;53.590;10.002;2023-03-24T08:53:41;4.53;;;1.57;;
17345;SDS011;8790;53.590;10.002;2023-03-24T08:56:13;3.87;;;1.60;;
17345;SDS011;8790;53.590;10.002;2023-03-24T08:58:45;5.03;;;1.63;;
17345;SDS011;8790;53.590;10.002;2023-03-24T09:01:19;3.70;;;1.27;;
17345;SDS011;8790;53.590;10.002;2023-03-24T09:03:51;5.80;;;1.60;;
17345;SDS011;8790;53.590;10.002;2023-03-24T09:06:23;4.87;;;1.30;;
17345;SDS011;8790;53.590;10.002;2023-03-24T09:08:56;4.43;;;1.40;;
17345;SDS011;8790;53.590;10.002;2023-03-24T09:11:28;6.10;;;1.70;;
17345;SDS011;8790;53.590;10.002;2023-03-24T09:13:59;6.90;;;1.57;;
17345;SDS011;8790;53.590;10.002;2023-03-24T09:16:33;5.17;;;1.53;;
17345;SDS011;8790;53.590;10.002;2023-03-24T09:19:04;6.47;;;1.63;;
17345;SDS011;8790;53.590;10.002;2023-03-24T09:21:36;4.70;;;1.93;;
17345;SDS011;8790;53.590;10.002;2023-03-24T09:24:08;7.60;;;1.70;;
17345;SDS011;8790;53.590;10.002;2023-03-24T09:26:39;6.37;;;1.90;;
17345;SDS011;8790;53.590;10.002;2023-03-24T09:29:11;5.43;;;1.70;;
17345;SDS011;8790;53.590;10.002;2023-03-24T09:31:44;6.10;;;1.40;;
17345;SDS011;8790;53.590;10.002;2023-03-24T09:34:16;5.50;;;1.83;;
17345;SDS011;8790;53.590;10.002;2023-03-24T09:36:48;8.37;;;1.40;;
17345;SDS011;8790;53.590;10.002;2023-03-24T09:39:20;5.27;;;1.60;;
17345;SDS011;8790;53.590;10.002;2023-03-24T09:41:52;6.00;;;1.80;;
17345;SDS011;8790;53.590;10.002;2023-03-24T09:44:26;6.97;;;1.70;;
17345;SDS011;8790;53.590;10.002;2023-03-24T09:47:02;7.77;;;1.87;;
17345;SDS011;8790;53.590;10.002;2023-03-24T09:49:40;6.70;;;1.80;;
17345;SDS011;8790;53.590;10.002;2023-03-24T09:52:15;5.30;;;1.60;;
17345;SDS011;8790;53.590;10.002;2023-03-24T09:54:52;4.27;;;1.77;;
17345;SDS011;8790;53.590;10.002;2023-03-24T09:57:28;4.83;;;1.63;;
17345;SDS011;8790;53.590;10.002;2023-03-24T10:00:08;8.50;;;2.13;;
17345;SDS011;8790;53.590;10.002;2023-03-24T10:02:48;3.67;;;1.53;;
17345;SDS011;8790;53.590;10.002;2023-03-24T10:05:21;6.90;;;1.73;;
17345;SDS011;8790;53.590;10.002;2023-03-24T10:07:59;5.80;;;1.63;;
17345;SDS011;8790;53.590;10.002;2023-03-24T10:10:41;5.07;;;1.83;;
17345;SDS011;8790;53.590;10.002;2023-03-24T10:13:20;6.77;;;1.80;;
17345;SDS011;8790;53.590;10.002;2023-03-24T10:15:58;4.60;;;1.70;;
17345;SDS011;8790;53.590;10.002;2023-03-24T10:18:38;9.97;;;1.90;;
17345;SDS011;8790;53.590;10.002;2023-03-24T10:21:13;7.60;;;2.07;;
17345;SDS011;8790;53.590;10.002;2023-03-24T10:23:50;5.50;;;1.80;;
17345;SDS011;8790;53.590;10.002;2023-03-24T10:26:31;6.90;;;2.00;;
17345;SDS011;8790;53.590;10.002;2023-03-24T10:32:04;8.03;;;2.70;;
17345;SDS011;8790;53.590;10.002;2023-03-24T10:34:44;11.57;;;6.73;;
17345;SDS011;8790;53.590;10.002;2023-03-24T10:37:23;5.17;;;1.80;;
17345;SDS011;8790;53.590;10.002;2023-03-24T10:39:55;7.80;;;1.90;;
17345;SDS011;8790;53.590;10.002;2023-03-24T10:42:27;6.27;;;1.97;;
17345;SDS011;8790;53.590;10.002;2023-03-24T10:45:03;4.40;;;1.70;;
17345;SDS011;8790;53.590;10.002;2023-03-24T10:47:37;7.57;;;2.00;;
17345;SDS011;8790;53.590;10.002;2023-03-24T10:50:10;4.77;;;1.57;;
17345;SDS011;8790;53.590;10.002;2023-03-24T10:52:43;5.00;;;1.40;;
17345;SDS011;8790;53.590;10.002;2023-03-24T10:55:20;6.33;;;1.50;;
17345;SDS011;8790;53.590;10.002;2023-03-24T10:57:54;6.90;;;1.50;;
17345;SDS011;8790;53.590;10.002;2023-03-24T11:00:28;4.77;;;1.37;;
17345;SDS011;8790;53.590;10.002;2023-03-24T11:03:03;8.83;;;2.20;;
17345;SDS011;8790;53.590;10.002;2023-03-24T11:05:38;5.57;;;1.67;;
17345;SDS011;8790;53.590;10.002;2023-03-24T11:08:13;5.57;;;1.60;;
17345;SDS011;8790;53.590;10.002;2023-03-24T11:10:56;5.73;;;1.93;;
17345;SDS011;8790;53.590;10.002;2023-03-24T11:13:29;6.90;;;3.63;;
17345;SDS011;8790;53.590;10.002;2023-03-24T11:16:07;6.20;;;1.40;;
17345;SDS011;8790;53.590;10.002;2023-03-24T11:18:56;5.90;;;1.87;;
17345;SDS011;8790;53.590;10.002;2023-03-24T11:21:30;4.40;;;1.60;;
17345;SDS011;8790;53.590;10.002;2023-03-24T11:24:07;6.97;;;1.90;;
17345;SDS011;8790;53.590;10.002;2023-03-24T11:26:43;5.80;;;1.53;;
17345;SDS011;8790;53.590;10.002;2023-03-24T11:29:17;7.20;;;2.10;;
17345;SDS011;8790;53.590;10.002;2023-03-24T11:31:52;8.73;;;1.97;;
17345;SDS011;8790;53.590;10.002;2023-03-24T11:34:27;6.23;;;1.80;;
17345;SDS011;8790;53.590;10.002;2023-03-24T11:37:04;7.20;;;1.57;;
17345;SDS011;8790;53.590;10.002;2023-03-24T11:39:41;5.33;;;1.63;;
17345;SDS011;8790;53.590;10.002;2023-03-24T11:42:14;7.00;;;1.67;;
17345;SDS011;8790;53.590;10.002;2023-03-24T11:44:48;6.57;;;1.90;;
17345;SDS011;8790;53.590;10.002;2023-03-24T11:47:22;7.20;;;1.80;;
17345;SDS011;8790;53.590;10.002;2023-03-24T11:50:00;5.13;;;1.67;;
17345;SDS011;8790;53.590;10.002;2023-03-24T11:52:46;5.80;;;1.53;;
17345;SDS011;8790;53.590;10.002;2023-03-24T11:55:23;7.50;;;2.73;;
17345;SDS011;8790;53.590;10.002;2023-03-24T11:58:03;7.67;;;1.90;;
17345;SDS011;8790;53.590;10.002;2023-03-24T12:00:44;10.73;;;1.77;;
17345;SDS011;8790;53.590;10.002;2023-03-24T12:03:31;7.70;;;1.90;;
17345;SDS011;8790;53.590;10.002;2023-03-24T12:06:21;9.23;;;2.00;;
17345;SDS011;8790;53.590;10.002;2023-03-24T12:09:04;8.70;;;2.10;;
17345;SDS011;8790;53.590;10.002;2023-03-24T12:11:45;6.50;;;1.83;;
17345;SDS011;8790;53.590;10.002;2023-03-24T12:14:30;9.73;;;2.40;;
17345;SDS011;8790;53.590;10.002;2023-03-24T12:17:11;7.20;;;1.93;;
17345;SDS011;8790;53.590;10.002;2023-03-24T12:19:49;6.67;;;2.20;;
17345;SDS011;8790;53.590;10.002;2023-03-24T12:22:37;8.07;;;1.97;;
17345;SDS011;8790;53.590;10.002;2023-03-24T12:25:22;7.53;;;1.87;;
17345;SDS011;8790;53.590;10.002;2023-03-24T12:28:21;7.67;;;1.80;;
17345;SDS011;8790;53.590;10.002;2023-03-24T12:31:04;8.23;;;1.70;;
17345;SDS011;8790;53.590;10.002;2023-03-24T12:33:46;6.53;;;1.90;;
17345;SDS011;8790;53.590;10.002;2023-03-24T12:36:31;7.80;;;2.07;;
17345;SDS011;8790;53.590;10.002;2023-03-24T12:39:11;7.00;;;1.70;;
17345;SDS011;8790;53.590;10.002;2023-03-24T12:41:53;6.60;;;1.87;;
17345;SDS011;8790;53.590;10.002;2023-03-24T12:44:45;5.47;;;1.83;;
17345;SDS011;8790;53.590;10.002;2023-03-24T12:47:35;7.80;;;2.00;;
17345;SDS011;8790;53.590;10.002;2023-03-24T12:50:25;7.33;;;2.00;;
17345;SDS011;8790;53.590;10.002;2023-03-24T12:53:09;9.10;;;2.13;;
17345;SDS011;8790;53.590;10.002;2023-03-24T12:55:57;8.40;;;1.83;;
17345;SDS011;8790;53.590;10.002;2023-03-24T12:58:35;8.20;;;2.00;;
17345;SDS011;8790;53.590;10.002;2023-03-24T13:01:14;8.03;;;2.23;;
17345;SDS011;8790;53.590;10.002;2023-03-24T13:03:52;8.77;;;2.40;;
17345;SDS011;8790;53.590;10.002;2023-03-24T13:06:31;6.30;;;2.00;;
17345;SDS011;8790;53.590;10.002;2023-03-24T13:09:14;7.53;;;2.00;;
17345;SDS011;8790;53.590;10.002;2023-03-24T13:11:54;6.80;;;2.00;;
17345;SDS011;8790;53.590;10.002;2023-03-24T13:14:33;5.33;;;1.83;;
17345;SDS011;8790;53.590;10.002;2023-03-24T13:17:16;7.20;;;2.10;;
17345;SDS011;8790;53.590;10.002;2023-03-24T13:19:51;4.23;;;1.23;;
17345;SDS011;8790;53.590;10.002;2023-03-24T13:22:25;5.57;;;1.80;;
17345;SDS011;8790;53.590;10.002;2023-03-24T13:24:58;5.53;;;1.60;;
17345;SDS011;8790;53.590;10.002;2023-03-24T13:27:32;6.57;;;1.60;;
17345;SDS011;8790;53.590;10.002;2023-03-24T13:30:16;4.60;;;1.40;;
17345;SDS011;8790;53.590;10.002;2023-03-24T13:33:01;6.30;;;1.57;;
17345;SDS011;8790;53.590;10.002;2023-03-24T13:35:39;6.33;;;1.70;;
17345;SDS011;8790;53.590;10.002;2023-03-24T13:38:28;6.43;;;1.70;;
17345;SDS011;8790;53.590;10.002;2023-03-24T13:41:06;5.63;;;1.40;;
17345;SDS011;8790;53.590;10.002;2023-03-24T13:43:46;7.60;;;1.63;;
17345;SDS011;8790;53.590;10.002;2023-03-24T13:46:20;4.27;;;1.47;;
17345;SDS011;8790;53.590;10.002;2023-03-24T13:48:53;6.90;;;1.70;;
17345;SDS011;8790;53.590;10.002;2023-03-24T13:51:28;3.97;;;1.40;;
17345;SDS011;8790;53.590;10.002;2023-03-24T13:54:03;6.07;;;1.43;;
17345;SDS011;8790;53.590;10.002;2023-03-24T13:56:37;6.03;;;1.50;;
17345;SDS011;8790;53.590;10.002;2023-03-24T13:59:28;3.83;;;1.30;;
17345;SDS011;8790;53.590;10.002;2023-03-24T14:02:15;5.63;;;1.47;;
17345;SDS011;8790;53.590;10.002;2023-03-24T14:05:00;3.93;;;1.40;;
17345;SDS011;8790;53.590;10.002;2023-03-24T14:07:42;3.13;;;1.27;;
17345;SDS011;8790;53.590;10.002;2023-03-24T14:13:31;6.77;;;1.40;;
17345;SDS011;8790;53.590;10.002;2023-03-24T14:19:26;4.73;;;2.10;;
17345;SDS011;8790;53.590;10.002;2023-03-24T14:22:08;6.17;;;1.57;;
17345;SDS011;8790;53.590;10.002;2023-03-24T14:24:44;6.13;;;1.40;;
17345;SDS011;8790;53.590;10.002;2023-03-24T14:27:32;4.53;;;1.67;;
17345;SDS011;8790;53.590;10.002;2023-03-24T14:30:12;4.90;;;1.73;;
17345;SDS011;8790;53.590;10.002;2023-03-24T14:32:51;5.57;;;1.75;;
17345;SDS011;8790;53.590;10.002;2023-03-24T14:35:33;5.87;;;1.50;;
17345;SDS011;8790;53.590;10.002;2023-03-24T14:38:18;5.72;;;1.67;;
17345;SDS011;8790;53.590;10.002;2023-03-24T14:40:56;4.50;;;1.40;;
17345;SDS011;8790;53.590;10.002;2023-03-24T14:43:51;5.22;;;1.48;;
17345;SDS011;8790;53.590;10.002;2023-03-24T14:46:31;5.03;;;1.65;;
17345;SDS011;8790;53.590;10.002;2023-03-24T14:49:13;5.80;;;1.75;;
17345;SDS011;8790;53.590;10.002;2023-03-24T14:51:57;3.63;;;1.40;;
17345;SDS011;8790;53.590;10.002;2023-03-24T14:54:33;5.47;;;1.42;;
17345;SDS011;8790;53.590;10.002;2023-03-24T14:57:07;3.10;;;1.30;;
17345;SDS011;8790;53.590;10.002;2023-03-24T14:59:46;3.47;;;1.35;;
17345;SDS011;8790;53.590;10.002;2023-03-24T15:02:27;5.10;;;1.50;;
17345;SDS011;8790;53.590;10.002;2023-03-24T15:05:16;5.82;;;1.30;;
17345;SDS011;8790;53.590;10.002;2023-03-24T15:08:04;4.75;;;1.60;;
17345;SDS011;8790;53.590;10.002;2023-03-24T15:10:47;4.40;;;1.30;;
17345;SDS011;8790;53.590;10.002;2023-03-24T15:13:24;3.28;;;1.17;;
17345;SDS011;8790;53.590;10.002;2023-03-24T15:16:02;6.20;;;1.40;;
17345;SDS011;8790;53.590;10.002;2023-03-24T15:18:40;5.93;;;1.55;;
17345;SDS011;8790;53.590;10.002;2023-03-24T15:21:19;4.85;;;1.40;;
17345;SDS011;8790;53.590;10.002;2023-03-24T15:23:58;5.00;;;1.50;;
17345;SDS011;8790;53.590;10.002;2023-03-24T15:26:31;3.25;;;1.50;;
17345;SDS011;8790;53.590;10.002;2023-03-24T15:29:04;6.35;;;1.33;;
17345;SDS011;8790;53.590;10.002;2023-03-24T15:31:37;4.13;;;1.23;;
17345;SDS011;8790;53.590;10.002;2023-03-24T15:34:23;6.47;;;1.58;;
17345;SDS011;8790;53.590;10.002;2023-03-24T15:36:56;5.50;;;1.60;;
17345;SDS011;8790;53.590;10.002;2023-03-24T15:39:33;6.22;;;1.15;;
17345;SDS011;8790;53.590;10.002;2023-03-24T15:42:06;7.03;;;1.60;;
17345;SDS011;8790;53.590;10.002;2023-03-24T15:44:39;3.97;;;1.30;;
17345;SDS011;8790;53.590;10.002;2023-03-24T15:47:12;3.93;;;1.23;;
17345;SDS011;8790;53.590;10.002;2023-03-24T15:49:51;4.40;;;1.30;;
17345;SDS011;8790;53.590;10.002;2023-03-24T15:52:26;3.10;;;1.23;;
17345;SDS011;8790;53.590;10.002;2023-03-24T15:55:01;4.43;;;1.60;;
17345;SDS011;8790;53.590;10.002;2023-03-24T15:57:38;5.10;;;1.23;;
17345;SDS011;8790;53.590;10.002;2023-03-24T16:00:12;5.53;;;1.40;;
17345;SDS011;8790;53.590;10.002;2023-03-24T16:02:46;3.43;;;1.20;;
17345;SDS011;8790;53.590;10.002;2023-03-24T16:05:21;9.30;;;1.90;;
17345;SDS011;8790;53.590;10.002;2023-03-24T16:07:55;5.33;;;1.53;;